sensor_id;sensor_type;location;lat;lon;timestamp;P1;durP1;ratioP1;P2;durP2;ratioP2
54875;SDS011;40764;48.472;8.166;2022-12-18T00:03:20;150.98;;;39.28;;
54875;SDS011;40764;48.472;8.166;2022-12-18T00:09:20;150.18;;;35.80;;
54875;SDS011;40764;48.472;8.166;2022-12-18T00:21:21;140.07;;;33.28;;
54875;SDS011;40764;48.472;8.166;2022-12-18T00:33:22;126.22;;;34.83;;
54875;SDS011;40764;48.472;8.166;2022-12-18T00:45:23;133.05;;;34.22;;
54875;SDS011;40764;48.472;8.166;2022-12-18T00:51:28;118.57;;;33.50;;
54875;SDS011;40764;48.472;8.166;2022-12-18T01:03:29;119.78;;;34.00;;
54875;SDS011;40764;48.472;8.166;2022-12-18T01:09:29;121.53;;;34.27;;
54875;SDS011;40764;48.472;8.166;2022-12-18T01:21:30;124.15;;;30.45;;
54875;SDS011;40764;48.472;8.166;2022-12-18T01:27:30;106.20;;;32.43;;
54875;SDS011;40764;48.472;8.166;2022-12-18T01:33:33;103.20;;;30.63;;
54875;SDS011;40764;48.472;8.166;2022-12-18T01:45:33;104.30;;;29.95;;
54875;SDS011;40764;48.472;8.166;2022-12-18T01:51:33;108.40;;;31.60;;
54875;SDS011;40764;48.472;8.166;2022-12-18T01:57:34;111.73;;;28.70;;
54875;SDS011;40764;48.472;8.166;2022-12-18T02:03:34;112.50;;;31.83;;
54875;SDS011;40764;48.472;8.166;2022-12-18T02:15:50;103.03;;;27.73;;
54875;SDS011;40764;48.472;8.166;2022-12-18T02:22:05;101.53;;;27.42;;
54875;SDS011;40764;48.472;8.166;2022-12-18T02:28:21;107.45;;;29.63;;
54875;SDS011;40764;48.472;8.166;2022-12-18T02:34:28;103.95;;;29.50;;
54875;SDS011;40764;48.472;8.166;2022-12-18T02:40:31;91.75;;;27.35;;
54875;SDS011;40764;48.472;8.166;2022-12-18T02:46:33;81.88;;;25.08;;
54875;SDS011;40764;48.472;8.166;2022-12-18T02:59:04;98.85;;;26.80;;
54875;SDS011;40764;48.472;8.166;2022-12-18T03:05:17;94.13;;;25.88;;
54875;SDS011;40764;48.472;8.166;2022-12-18T03:11:25;88.63;;;26.42;;
54875;SDS011;40764;48.472;8.166;2022-12-18T03:17:52;99.07;;;27.33;;
54875;SDS011;40764;48.472;8.166;2022-12-18T03:23:59;90.13;;;25.27;;
54875;SDS011;40764;48.472;8.166;2022-12-18T03:30:05;94.05;;;26.80;;
54875;SDS011;40764;48.472;8.166;2022-12-18T03:36:12;86.25;;;25.38;;
54875;SDS011;40764;48.472;8.166;2022-12-18T03:55:27;79.68;;;24.88;;
54875;SDS011;40764;48.472;8.166;2022-12-18T04:01:33;90.80;;;25.55;;
54875;SDS011;40764;48.472;8.166;2022-12-18T04:07:40;94.45;;;26.48;;
54875;SDS011;40764;48.472;8.166;2022-12-18T04:13:41;95.65;;;27.80;;
54875;SDS011;40764;48.472;8.166;2022-12-18T04:19:42;81.63;;;24.58;;
54875;SDS011;40764;48.472;8.166;2022-12-18T04:25:42;89.72;;;25.10;;
54875;SDS011;40764;48.472;8.166;2022-12-18T04:31:43;95.82;;;26.55;;
54875;SDS011;40764;48.472;8.166;2022-12-18T04:37:43;99.85;;;27.05;;
54875;SDS011;40764;48.472;8.166;2022-12-18T04:43:43;97.40;;;28.33;;
54875;SDS011;40764;48.472;8.166;2022-12-18T04:49:43;83.03;;;24.63;;
54875;SDS011;40764;48.472;8.166;2022-12-18T04:55:44;81.05;;;25.65;;
54875;SDS011;40764;48.472;8.166;2022-12-18T05:01:44;74.40;;;23.63;;
54875;SDS011;40764;48.472;8.166;2022-12-18T05:07:45;79.97;;;22.88;;
54875;SDS011;40764;48.472;8.166;2022-12-18T05:13:46;82.88;;;26.40;;
54875;SDS011;40764;48.472;8.166;2022-12-18T05:19:46;85.45;;;23.92;;
54875;SDS011;40764;48.472;8.166;2022-12-18T05:25:56;88.47;;;25.57;;
54875;SDS011;40764;48.472;8.166;2022-12-18T05:31:58;83.63;;;24.40;;
54875;SDS011;40764;48.472;8.166;2022-12-18T05:37:58;88.35;;;25.55;;
54875;SDS011;40764;48.472;8.166;2022-12-18T05:43:59;71.13;;;22.02;;
54875;SDS011;40764;48.472;8.166;2022-12-18T05:50:00;60.42;;;19.85;;
54875;SDS011;40764;48.472;8.166;2022-12-18T05:56:01;88.20;;;26.07;;
54875;SDS011;40764;48.472;8.166;2022-12-18T06:02:03;67.72;;;21.02;;
54875;SDS011;40764;48.472;8.166;2022-12-18T06:08:04;62.10;;;19.23;;
54875;SDS011;40764;48.472;8.166;2022-12-18T06:14:05;82.35;;;24.38;;
54875;SDS011;40764;48.472;8.166;2022-12-18T06:20:06;73.00;;;23.58;;
54875;SDS011;40764;48.472;8.166;2022-12-18T06:26:08;60.63;;;21.05;;
54875;SDS011;40764;48.472;8.166;2022-12-18T06:32:11;59.08;;;19.65;;
54875;SDS011;40764;48.472;8.166;2022-12-18T06:38:11;101.65;;;23.10;;
54875;SDS011;40764;48.472;8.166;2022-12-18T06:44:12;153.57;;;41.83;;
54875;SDS011;40764;48.472;8.166;2022-12-18T06:50:12;83.53;;;28.77;;
54875;SDS011;40764;48.472;8.166;2022-12-18T06:56:13;75.10;;;21.80;;
54875;SDS011;40764;48.472;8.166;2022-12-18T07:02:13;73.97;;;22.30;;
54875;SDS011;40764;48.472;8.166;2022-12-18T07:08:14;74.95;;;20.98;;
54875;SDS011;40764;48.472;8.166;2022-12-18T07:14:14;70.80;;;21.05;;
54875;SDS011;40764;48.472;8.166;2022-12-18T07:20:15;49.83;;;17.80;;
54875;SDS011;40764;48.472;8.166;2022-12-18T07:26:16;70.57;;;22.98;;
54875;SDS011;40764;48.472;8.166;2022-12-18T07:32:19;83.72;;;27.58;;
54875;SDS011;40764;48.472;8.166;2022-12-18T07:38:19;60.63;;;20.50;;
54875;SDS011;40764;48.472;8.166;2022-12-18T07:44:19;58.07;;;20.37;;
54875;SDS011;40764;48.472;8.166;2022-12-18T07:50:20;85.05;;;26.88;;
54875;SDS011;40764;48.472;8.166;2022-12-18T08:02:26;66.65;;;20.08;;
54875;SDS011;40764;48.472;8.166;2022-12-18T08:08:30;60.40;;;18.90;;
54875;SDS011;40764;48.472;8.166;2022-12-18T08:14:32;56.15;;;19.30;;
54875;SDS011;40764;48.472;8.166;2022-12-18T08:20:32;54.50;;;17.40;;
54875;SDS011;40764;48.472;8.166;2022-12-18T08:26:33;60.80;;;20.05;;
54875;SDS011;40764;48.472;8.166;2022-12-18T08:32:33;72.20;;;21.25;;
54875;SDS011;40764;48.472;8.166;2022-12-18T08:38:33;52.88;;;17.92;;
54875;SDS011;40764;48.472;8.166;2022-12-18T08:44:34;53.00;;;21.30;;
54875;SDS011;40764;48.472;8.166;2022-12-18T08:50:37;60.60;;;19.70;;
54875;SDS011;40764;48.472;8.166;2022-12-18T08:56:37;60.00;;;18.30;;
54875;SDS011;40764;48.472;8.166;2022-12-18T09:02:38;66.68;;;26.60;;
54875;SDS011;40764;48.472;8.166;2022-12-18T09:08:38;84.22;;;28.10;;
54875;SDS011;40764;48.472;8.166;2022-12-18T09:14:38;88.30;;;31.20;;
54875;SDS011;40764;48.472;8.166;2022-12-18T09:20:39;37.63;;;15.32;;
54875;SDS011;40764;48.472;8.166;2022-12-18T09:26:39;44.17;;;15.23;;
54875;SDS011;40764;48.472;8.166;2022-12-18T09:32:39;52.80;;;16.47;;
54875;SDS011;40764;48.472;8.166;2022-12-18T09:38:40;54.00;;;18.13;;
54875;SDS011;40764;48.472;8.166;2022-12-18T09:44:44;59.28;;;20.58;;
54875;SDS011;40764;48.472;8.166;2022-12-18T09:50:49;58.35;;;22.00;;
54875;SDS011;40764;48.472;8.166;2022-12-18T09:56:52;61.90;;;21.35;;
54875;SDS011;40764;48.472;8.166;2022-12-18T10:09:05;71.15;;;24.23;;
54875;SDS011;40764;48.472;8.166;2022-12-18T10:15:13;72.70;;;27.88;;
54875;SDS011;40764;48.472;8.166;2022-12-18T10:21:32;83.43;;;27.25;;
54875;SDS011;40764;48.472;8.166;2022-12-18T10:27:39;70.90;;;24.77;;
54875;SDS011;40764;48.472;8.166;2022-12-18T10:39:41;78.60;;;24.60;;
54875;SDS011;40764;48.472;8.166;2022-12-18T10:45:41;80.37;;;27.70;;
54875;SDS011;40764;48.472;8.166;2022-12-18T10:58:34;157.77;;;40.30;;
54875;SDS011;40764;48.472;8.166;2022-12-18T11:04:36;80.80;;;27.15;;
54875;SDS011;40764;48.472;8.166;2022-12-18T11:10:50;88.07;;;32.63;;
54875;SDS011;40764;48.472;8.166;2022-12-18T11:16:55;93.70;;;32.37;;
54875;SDS011;40764;48.472;8.166;2022-12-18T11:29:22;90.40;;;32.17;;
54875;SDS011;40764;48.472;8.166;2022-12-18T11:35:32;103.78;;;36.75;;
54875;SDS011;40764;48.472;8.166;2022-12-18T11:48:09;88.57;;;29.90;;
54875;SDS011;40764;48.472;8.166;2022-12-18T11:54:21;85.88;;;30.95;;
54875;SDS011;40764;48.472;8.166;2022-12-18T12:00:24;93.20;;;33.22;;
54875;SDS011;40764;48.472;8.166;2022-12-18T12:12:55;84.85;;;28.40;;
54875;SDS011;40764;48.472;8.166;2022-12-18T12:44:13;78.72;;;27.30;;
54875;SDS011;40764;48.472;8.166;2022-12-18T12:50:19;94.68;;;35.30;;
54875;SDS011;40764;48.472;8.166;2022-12-18T12:56:22;109.65;;;37.88;;
54875;SDS011;40764;48.472;8.166;2022-12-18T13:02:33;89.68;;;30.83;;
54875;SDS011;40764;48.472;8.166;2022-12-18T13:08:51;106.75;;;38.83;;
54875;SDS011;40764;48.472;8.166;2022-12-18T13:15:11;134.20;;;42.13;;
54875;SDS011;40764;48.472;8.166;2022-12-18T13:21:33;108.25;;;36.85;;
54875;SDS011;40764;48.472;8.166;2022-12-18T13:33:45;210.25;;;68.30;;
54875;SDS011;40764;48.472;8.166;2022-12-18T13:39:46;97.55;;;32.92;;
54875;SDS011;40764;48.472;8.166;2022-12-18T13:45:58;104.70;;;33.13;;
54875;SDS011;40764;48.472;8.166;2022-12-18T13:52:26;103.40;;;34.08;;
54875;SDS011;40764;48.472;8.166;2022-12-18T13:58:28;91.25;;;35.30;;
54875;SDS011;40764;48.472;8.166;2022-12-18T14:04:30;123.37;;;40.30;;
54875;SDS011;40764;48.472;8.166;2022-12-18T14:10:32;119.55;;;40.65;;
54875;SDS011;40764;48.472;8.166;2022-12-18T14:16:33;164.40;;;53.58;;
54875;SDS011;40764;48.472;8.166;2022-12-18T14:22:34;153.63;;;50.03;;
54875;SDS011;40764;48.472;8.166;2022-12-18T14:28:42;161.43;;;47.27;;
54875;SDS011;40764;48.472;8.166;2022-12-18T14:34:53;158.07;;;49.83;;
54875;SDS011;40764;48.472;8.166;2022-12-18T14:47:15;126.97;;;44.53;;
54875;SDS011;40764;48.472;8.166;2022-12-18T14:59:20;89.20;;;34.17;;
54875;SDS011;40764;48.472;8.166;2022-12-18T15:05:30;169.10;;;51.05;;
54875;SDS011;40764;48.472;8.166;2022-12-18T15:17:40;149.90;;;45.80;;
54875;SDS011;40764;48.472;8.166;2022-12-18T15:29:44;139.32;;;55.15;;
54875;SDS011;40764;48.472;8.166;2022-12-18T15:36:19;119.88;;;39.13;;
54875;SDS011;40764;48.472;8.166;2022-12-18T15:42:22;132.00;;;42.03;;
54875;SDS011;40764;48.472;8.166;2022-12-18T15:48:44;112.60;;;39.10;;
54875;SDS011;40764;48.472;8.166;2022-12-18T15:54:47;130.18;;;45.15;;
54875;SDS011;40764;48.472;8.166;2022-12-18T16:01:06;163.98;;;50.05;;
54875;SDS011;40764;48.472;8.166;2022-12-18T16:07:09;168.75;;;59.70;;
54875;SDS011;40764;48.472;8.166;2022-12-18T16:13:10;133.60;;;46.53;;
54875;SDS011;40764;48.472;8.166;2022-12-18T16:19:14;114.72;;;40.67;;
54875;SDS011;40764;48.472;8.166;2022-12-18T16:25:16;131.27;;;39.70;;
54875;SDS011;40764;48.472;8.166;2022-12-18T16:31:17;119.40;;;41.45;;
54875;SDS011;40764;48.472;8.166;2022-12-18T16:37:17;121.72;;;41.78;;
54875;SDS011;40764;48.472;8.166;2022-12-18T16:43:17;128.10;;;42.57;;
54875;SDS011;40764;48.472;8.166;2022-12-18T16:49:18;124.40;;;45.65;;
54875;SDS011;40764;48.472;8.166;2022-12-18T16:55:19;126.10;;;44.38;;
54875;SDS011;40764;48.472;8.166;2022-12-18T17:01:20;118.20;;;39.13;;
54875;SDS011;40764;48.472;8.166;2022-12-18T17:07:21;111.10;;;38.08;;
54875;SDS011;40764;48.472;8.166;2022-12-18T17:13:22;124.72;;;41.53;;
54875;SDS011;40764;48.472;8.166;2022-12-18T17:19:23;106.25;;;39.08;;
54875;SDS011;40764;48.472;8.166;2022-12-18T17:31:26;113.90;;;39.53;;
54875;SDS011;40764;48.472;8.166;2022-12-18T17:37:27;116.30;;;38.70;;
54875;SDS011;40764;48.472;8.166;2022-12-18T17:43:28;113.22;;;42.97;;
54875;SDS011;40764;48.472;8.166;2022-12-18T17:49:29;101.72;;;37.65;;
54875;SDS011;40764;48.472;8.166;2022-12-18T17:55:29;105.10;;;35.80;;
54875;SDS011;40764;48.472;8.166;2022-12-18T18:01:30;112.57;;;39.33;;
54875;SDS011;40764;48.472;8.166;2022-12-18T18:07:30;125.57;;;44.77;;
54875;SDS011;40764;48.472;8.166;2022-12-18T18:13:31;110.33;;;40.70;;
54875;SDS011;40764;48.472;8.166;2022-12-18T18:19:50;170.63;;;57.20;;
54875;SDS011;40764;48.472;8.166;2022-12-18T18:25:50;120.43;;;45.95;;
54875;SDS011;40764;48.472;8.166;2022-12-18T18:31:50;120.75;;;42.95;;
54875;SDS011;40764;48.472;8.166;2022-12-18T18:37:51;134.30;;;48.13;;
54875;SDS011;40764;48.472;8.166;2022-12-18T18:43:55;132.32;;;43.67;;
54875;SDS011;40764;48.472;8.166;2022-12-18T18:49:56;102.00;;;35.22;;
54875;SDS011;40764;48.472;8.166;2022-12-18T18:55:57;85.70;;;32.90;;
54875;SDS011;40764;48.472;8.166;2022-12-18T19:01:59;105.15;;;35.85;;
54875;SDS011;40764;48.472;8.166;2022-12-18T19:08:00;96.90;;;36.53;;
54875;SDS011;40764;48.472;8.166;2022-12-18T19:20:05;122.20;;;42.10;;
54875;SDS011;40764;48.472;8.166;2022-12-18T19:26:07;126.53;;;48.10;;
54875;SDS011;40764;48.472;8.166;2022-12-18T19:32:11;111.72;;;43.05;;
54875;SDS011;40764;48.472;8.166;2022-12-18T19:38:12;98.88;;;38.05;;
54875;SDS011;40764;48.472;8.166;2022-12-18T19:44:23;101.07;;;43.05;;
54875;SDS011;40764;48.472;8.166;2022-12-18T19:50:24;120.10;;;49.42;;
54875;SDS011;40764;48.472;8.166;2022-12-18T19:56:25;111.03;;;46.35;;
54875;SDS011;40764;48.472;8.166;2022-12-18T20:02:30;87.72;;;32.05;;
54875;SDS011;40764;48.472;8.166;2022-12-18T20:08:35;98.13;;;36.97;;
54875;SDS011;40764;48.472;8.166;2022-12-18T20:14:36;91.65;;;38.08;;
54875;SDS011;40764;48.472;8.166;2022-12-18T20:20:36;150.27;;;48.70;;
54875;SDS011;40764;48.472;8.166;2022-12-18T20:26:37;165.43;;;54.80;;
54875;SDS011;40764;48.472;8.166;2022-12-18T20:32:38;156.70;;;53.83;;
54875;SDS011;40764;48.472;8.166;2022-12-18T20:38:38;176.50;;;55.85;;
54875;SDS011;40764;48.472;8.166;2022-12-18T20:44:39;169.67;;;50.93;;
54875;SDS011;40764;48.472;8.166;2022-12-18T20:50:39;155.80;;;51.67;;
54875;SDS011;40764;48.472;8.166;2022-12-18T20:56:42;142.23;;;49.85;;
54875;SDS011;40764;48.472;8.166;2022-12-18T21:02:42;147.15;;;53.83;;
54875;SDS011;40764;48.472;8.166;2022-12-18T21:08:47;138.23;;;49.35;;
54875;SDS011;40764;48.472;8.166;2022-12-18T21:14:48;163.32;;;62.63;;
54875;SDS011;40764;48.472;8.166;2022-12-18T21:20:48;127.85;;;49.47;;
54875;SDS011;40764;48.472;8.166;2022-12-18T21:26:55;142.90;;;57.25;;
54875;SDS011;40764;48.472;8.166;2022-12-18T21:32:56;112.53;;;42.85;;
54875;SDS011;40764;48.472;8.166;2022-12-18T21:38:56;123.60;;;46.35;;
54875;SDS011;40764;48.472;8.166;2022-12-18T21:44:57;126.70;;;49.80;;
54875;SDS011;40764;48.472;8.166;2022-12-18T21:50:58;133.87;;;46.60;;
54875;SDS011;40764;48.472;8.166;2022-12-18T21:56:59;110.28;;;43.78;;
54875;SDS011;40764;48.472;8.166;2022-12-18T22:03:01;110.80;;;44.05;;
54875;SDS011;40764;48.472;8.166;2022-12-18T22:09:02;115.80;;;42.63;;
54875;SDS011;40764;48.472;8.166;2022-12-18T22:15:03;113.72;;;41.50;;
54875;SDS011;40764;48.472;8.166;2022-12-18T22:21:04;110.82;;;43.17;;
54875;SDS011;40764;48.472;8.166;2022-12-18T22:27:05;103.68;;;40.95;;
54875;SDS011;40764;48.472;8.166;2022-12-18T22:33:05;112.50;;;40.60;;
54875;SDS011;40764;48.472;8.166;2022-12-18T22:39:06;95.70;;;37.70;;
54875;SDS011;40764;48.472;8.166;2022-12-18T22:45:10;87.90;;;37.08;;
54875;SDS011;40764;48.472;8.166;2022-12-18T22:51:15;82.82;;;34.50;;
54875;SDS011;40764;48.472;8.166;2022-12-18T22:58:13;89.32;;;32.65;;
54875;SDS011;40764;48.472;8.166;2022-12-18T23:04:13;73.55;;;32.92;;
54875;SDS011;40764;48.472;8.166;2022-12-18T23:10:14;85.63;;;34.67;;
54875;SDS011;40764;48.472;8.166;2022-12-18T23:16:16;74.40;;;33.07;;
54875;SDS011;40764;48.472;8.166;2022-12-18T23:22:18;67.25;;;30.60;;
54875;SDS011;40764;48.472;8.166;2022-12-18T23:28:24;78.32;;;31.33;;
54875;SDS011;40764;48.472;8.166;2022-12-18T23:34:24;83.10;;;29.90;;
54875;SDS011;40764;48.472;8.166;2022-12-18T23:40:24;67.27;;;27.40;;
54875;SDS011;40764;48.472;8.166;2022-12-18T23:46:27;62.63;;;25.53;;
54875;SDS011;40764;48.472;8.166;2022-12-18T23:52:29;66.88;;;26.75;;
54875;SDS011;40764;48.472;8.166;2022-12-18T23:58:29;55.53;;;22.87;;
